createdAt,value
2018-12-01T00:00:34.107Z,99792.69
2018-12-01T00:03:13.431Z,99794.03
2018-12-01T00:05:52.178Z,99803.51
2018-12-01T00:08:28.645Z,99790.05
2018-12-01T00:11:09.781Z,99795.50
2018-12-01T00:13:46.192Z,99795.70
2018-12-01T00:16:25.853Z,99794.66
2018-12-01T00:19:00.551Z,99789.77
2018-12-01T00:21:36.516Z,99794.31
2018-12-01T00:24:10.209Z,99798.72
2018-12-01T00:26:45.466Z,99798.27
2018-12-01T00:29:23.273Z,99791.48
2018-12-01T00:31:58.295Z,99798.08
2018-12-01T00:34:33.818Z,99804.37
2018-12-01T00:37:10.017Z,99801.73
2018-12-01T00:39:46.198Z,99806.23
2018-12-01T00:42:24.614Z,99800.10
2018-12-01T00:45:01.267Z,99800.45
2018-12-01T00:47:39.210Z,99804.14
2018-12-01T00:50:16.725Z,99798.46
2018-12-01T00:52:52.511Z,99811.77
2018-12-01T00:55:34.435Z,99808.14
2018-12-01T00:58:11.227Z,99817.44
2018-12-01T01:00:47.962Z,99818.74
2018-12-01T01:03:22.821Z,99821.16
2018-12-01T01:06:01.784Z,99814.84
2018-12-01T01:08:37.697Z,99817.01
2018-12-01T01:11:14.337Z,99819.13
2018-12-01T01:13:53.747Z,99820.61
2018-12-01T01:16:26.140Z,99694.97
2018-12-01T01:19:02.571Z,99819.27
2018-12-01T01:21:40.357Z,99824.27
2018-12-01T01:27:01.898Z,99826.20
2018-12-01T01:29:34.345Z,99832.33
2018-12-01T01:32:11.663Z,99828.33
2018-12-01T01:34:48.890Z,99829.66
2018-12-01T01:37:23.321Z,99832.04
2018-12-01T01:40:00.025Z,99836.78
2018-12-01T01:42:33.432Z,99802.68
2018-12-01T01:45:11.341Z,99835.09
2018-12-01T01:47:45.092Z,99843.36
2018-12-01T01:50:21.422Z,99748.84
2018-12-01T01:52:56.236Z,99845.33
2018-12-01T01:55:37.019Z,99837.56
2018-12-01T01:58:13.665Z,99837.72
2018-12-01T02:00:56.700Z,99828.86
2018-12-01T02:03:31.372Z,99826.39
2018-12-01T02:06:08.457Z,99833.06
2018-12-01T02:08:43.434Z,99812.27
2018-12-01T02:11:19.407Z,99827.51
2018-12-01T02:13:52.421Z,99825.84
2018-12-01T02:16:28.872Z,99817.95
2018-12-01T02:19:05.761Z,99819.08
2018-12-01T02:21:42.468Z,99814.44
2018-12-01T02:24:18.546Z,99809.59
2018-12-01T02:26:54.752Z,99815.38
2018-12-01T02:29:32.243Z,99793.52
2018-12-01T02:32:08.597Z,99707.28
2018-12-01T02:34:45.567Z,99815.31
2018-12-01T02:37:19.319Z,99813.19
2018-12-01T02:39:54.513Z,99805.58
2018-12-01T02:42:28.550Z,99803.32
2018-12-01T02:45:14.240Z,99802.42
2018-12-01T02:47:51.184Z,99794.91
2018-12-01T02:50:32.472Z,99792.41
2018-12-01T02:53:06.274Z,99780.81
2018-12-01T02:55:40.666Z,99790.80
2018-12-01T03:00:50.254Z,99800.75
2018-12-01T03:03:26.185Z,99796.05
2018-12-01T03:06:02.516Z,99802.95
2018-12-01T03:08:40.605Z,99794.30
2018-12-01T03:11:15.435Z,99795.17
2018-12-01T03:13:55.857Z,99795.17
2018-12-01T03:16:43.478Z,99796.66
2018-12-01T03:19:17.800Z,99803.64
2018-12-01T03:21:49.677Z,99797.39
2018-12-01T03:24:25.643Z,99754.70
2018-12-01T03:27:02.538Z,99809.97
2018-12-01T03:29:36.935Z,99801.13
2018-12-01T03:34:48.873Z,99803.03
2018-12-01T03:37:23.540Z,99811.80
2018-12-01T03:39:56.608Z,99808.11
2018-12-01T03:42:35.054Z,99807.33
2018-12-01T03:45:07.048Z,99816.91
2018-12-01T03:47:41.394Z,99825.48
2018-12-01T03:50:20.863Z,99828.42
2018-12-01T03:52:57.730Z,99820.88
2018-12-01T03:55:32.994Z,99818.44
2018-12-01T03:58:04.488Z,99825.75
2018-12-01T04:00:39.924Z,99807.45
2018-12-01T04:03:17.552Z,99825.31
2018-12-01T04:05:50.659Z,99821.66
2018-12-01T04:08:26.593Z,99822.58
2018-12-01T04:11:00.367Z,99836.15
2018-12-01T04:13:33.494Z,99828.64
2018-12-01T04:16:06.542Z,99837.11
2018-12-01T04:18:40.117Z,99824.77
2018-12-01T04:21:13.831Z,99838.11
2018-12-01T04:23:46.403Z,99819.13
2018-12-01T04:26:22.586Z,99822.44
2018-12-01T04:28:59.629Z,99826.47
2018-12-01T04:33:50.178Z,99823.70
2018-12-01T04:36:31.738Z,99820.04
2018-12-01T04:39:03.680Z,99794.20
2018-12-01T04:41:34.713Z,99821.17
2018-12-01T04:44:07.272Z,99830.09
2018-12-01T04:46:38.709Z,99832.48
2018-12-01T04:49:10.340Z,99827.33
2018-12-01T04:51:48.325Z,99835.99
2018-12-01T04:54:24.944Z,99835.93
2018-12-01T04:57:01.346Z,99839.68
2018-12-01T04:59:36.625Z,99847.19
2018-12-01T05:02:12.850Z,99846.73
2018-12-01T05:04:46.975Z,99846.86
2018-12-01T05:07:21.125Z,99827.55
2018-12-01T05:09:54.779Z,99848.56
2018-12-01T05:12:30.111Z,99848.37
2018-12-01T05:15:06.553Z,99853.20
2018-12-01T05:17:41.526Z,99861.03
2018-12-01T05:20:17.378Z,99858.50
2018-12-01T05:22:52.196Z,99862.51
2018-12-01T05:25:28.760Z,99862.88
2018-12-01T05:28:04.516Z,99865.87
2018-12-01T05:30:35.841Z,99863.20
2018-12-01T05:33:19.697Z,99864.52
2018-12-01T05:35:55.946Z,99853.38
2018-12-01T05:38:29.619Z,99856.56
2018-12-01T05:41:03.389Z,99866.55
2018-12-01T05:43:39.304Z,99868.05
2018-12-01T05:46:15.801Z,99866.36
2018-12-01T05:51:40.966Z,99874.72
2018-12-01T05:54:14.429Z,99876.36
2018-12-01T05:56:48.370Z,99880.36
2018-12-01T05:59:26.262Z,99877.34
2018-12-01T06:02:02.201Z,99885.48
2018-12-01T06:04:37.330Z,99886.18
2018-12-01T06:07:10.242Z,99797.76
2018-12-01T06:09:46.956Z,99886.70
2018-12-01T06:12:21.666Z,99881.84
2018-12-01T06:14:53.309Z,99878.87
2018-12-01T06:17:28.863Z,99874.84
2018-12-01T06:20:01.118Z,99885.97
2018-12-01T06:22:34.144Z,99874.78
2018-12-01T06:25:06.691Z,99874.62
2018-12-01T06:27:41.646Z,99875.95
2018-12-01T06:30:18.776Z,99756.59
2018-12-01T06:32:54.577Z,99812.55
2018-12-01T06:35:30.852Z,99883.12
2018-12-01T06:38:12.461Z,99891.75
2018-12-01T06:40:50.649Z,99886.06
2018-12-01T06:46:02.358Z,99774.61
2018-12-01T06:48:33.761Z,99889.11
2018-12-01T06:51:11.712Z,99906.99
2018-12-01T06:53:44.811Z,99895.97
2018-12-01T06:56:20.027Z,99901.09
2018-12-01T06:58:56.449Z,99898.77
2018-12-01T07:01:35.320Z,99889.11
2018-12-01T07:04:06.599Z,99899.47
2018-12-01T07:06:38.644Z,99901.17
2018-12-01T07:09:19.097Z,99906.46
2018-12-01T07:11:53.258Z,99909.94
2018-12-01T07:14:27.296Z,99915.78
2018-12-01T07:17:02.267Z,99923.78
2018-12-01T07:19:36.706Z,99915.12
2018-12-01T07:22:10.468Z,99920.17
2018-12-01T07:24:50.858Z,99920.52
2018-12-01T07:27:27.334Z,99917.20
2018-12-01T07:30:02.330Z,99908.84
2018-12-01T07:32:35.166Z,99901.36
2018-12-01T07:35:07.746Z,99910.19
2018-12-01T07:37:39.978Z,99907.88
2018-12-01T07:40:17.125Z,99865.22
2018-12-01T07:42:51.114Z,99907.02
2018-12-01T07:45:26.597Z,99910.84
2018-12-01T07:48:02.115Z,99786.94
2018-12-01T07:50:35.421Z,99908.86
2018-12-01T07:53:10.818Z,99785.39
2018-12-01T07:55:42.322Z,99901.53
2018-12-01T07:58:18.589Z,99899.02
2018-12-01T08:00:52.918Z,99906.17
2018-12-01T08:03:24.785Z,99904.01
2018-12-01T08:05:56.632Z,99891.53
2018-12-01T08:08:30.875Z,99907.68
2018-12-01T08:11:07.945Z,99861.80
2018-12-01T08:13:43.210Z,99856.09
2018-12-01T08:16:16.546Z,99884.62
2018-12-01T08:18:48.947Z,99895.47
2018-12-01T08:21:23.704Z,99897.80
2018-12-01T08:23:59.768Z,99893.50
2018-12-01T08:26:35.991Z,99893.84
2018-12-01T08:29:10.077Z,99892.63
2018-12-01T08:31:44.967Z,99893.09
2018-12-01T08:34:19.493Z,99885.95
2018-12-01T08:36:52.956Z,99887.78
2018-12-01T08:39:28.773Z,99882.75
2018-12-01T08:42:01.981Z,99874.09
2018-12-01T08:44:36.603Z,99896.36
2018-12-01T08:47:11.433Z,99894.42
2018-12-01T08:49:45.344Z,99880.45
2018-12-01T08:52:20.810Z,99899.41
2018-12-01T08:54:55.832Z,99895.86
2018-12-01T08:57:33.312Z,99904.27
2018-12-01T09:00:05.278Z,99898.77
2018-12-01T09:02:40.626Z,99863.72
2018-12-01T09:05:15.562Z,99910.55
2018-12-01T09:07:49.866Z,99873.59
2018-12-01T09:10:24.495Z,99910.97
2018-12-01T09:13:04.150Z,99903.58
2018-12-01T09:15:37.433Z,99913.79
2018-12-01T09:18:08.804Z,99920.31
2018-12-01T09:20:41.902Z,99922.38
2018-12-01T09:23:17.196Z,99919.86
2018-12-01T09:25:51.008Z,99919.06
2018-12-01T09:28:28.269Z,99914.06
2018-12-01T09:31:03.477Z,99907.84
2018-12-01T09:33:39.182Z,99902.95
2018-12-01T09:36:13.668Z,99902.55
2018-12-01T09:38:45.936Z,99905.16
2018-12-01T09:41:19.831Z,99900.80
2018-12-01T09:43:59.047Z,99901.45
2018-12-01T09:46:36.212Z,99911.07
2018-12-01T09:49:09.502Z,99914.95
2018-12-01T09:51:40.630Z,99912.47
2018-12-01T09:54:15.298Z,99917.72
2018-12-01T09:56:49.018Z,99917.81
2018-12-01T10:02:01.115Z,99911.09
2018-12-01T10:04:38.070Z,99907.63
2018-12-01T10:07:12.815Z,99907.21
2018-12-01T10:09:46.412Z,99908.85
2018-12-01T10:12:21.936Z,99881.95
2018-12-01T10:15:00.241Z,99888.39
2018-12-01T10:17:35.846Z,99882.92
2018-12-01T10:20:12.301Z,99887.58
2018-12-01T10:22:46.261Z,99887.73
2018-12-01T10:25:18.937Z,99882.99
2018-12-01T10:27:52.993Z,99779.87
2018-12-01T10:30:30.913Z,99892.23
2018-12-01T10:33:03.649Z,99882.33
2018-12-01T10:35:46.624Z,99890.39
2018-12-01T10:41:08.746Z,99891.67
2018-12-01T10:43:42.828Z,99884.39
2018-12-01T10:46:20.149Z,99880.91
2018-12-01T10:48:54.126Z,99884.88
2018-12-01T10:51:29.249Z,99881.91
2018-12-01T10:54:05.421Z,99876.30
2018-12-01T10:56:43.815Z,99877.55
2018-12-01T10:59:16.620Z,99875.79
2018-12-01T11:01:56.561Z,99880.77
2018-12-01T11:04:35.271Z,99877.64
2018-12-01T11:07:08.797Z,99871.52
2018-12-01T11:09:42.471Z,99867.09
2018-12-01T11:12:19.182Z,99850.03
2018-12-01T11:14:52.757Z,99815.56
2018-12-01T11:17:28.497Z,99849.45
2018-12-01T11:20:02.853Z,99843.05
2018-12-01T11:22:41.299Z,99835.85
2018-12-01T11:25:15.930Z,99831.95
2018-12-01T11:27:57.517Z,99833.95
2018-12-01T11:30:30.617Z,99824.73
2018-12-01T11:33:06.086Z,99825.34
2018-12-01T11:35:43.327Z,99823.44
2018-12-01T11:38:19.019Z,99813.59
2018-12-01T11:40:56.361Z,99824.92
2018-12-01T11:43:35.462Z,99765.88
2018-12-01T11:46:14.431Z,99818.47
2018-12-01T11:48:51.227Z,99805.94
2018-12-01T11:51:29.532Z,99802.37
2018-12-01T11:54:04.067Z,99799.59
2018-12-01T11:56:42.599Z,99787.59
2018-12-01T11:59:16.810Z,99795.00
2018-12-01T12:01:50.147Z,99791.30
2018-12-01T12:04:22.617Z,99796.67
2018-12-01T12:06:58.826Z,99795.67
2018-12-01T12:09:32.341Z,99798.70
2018-12-01T12:12:08.600Z,99790.72
2018-12-01T12:14:43.323Z,99783.92
2018-12-01T12:17:21.672Z,99766.66
2018-12-01T12:19:54.947Z,99763.56
2018-12-01T12:22:29.978Z,99787.63
2018-12-01T12:25:07.231Z,99791.56
2018-12-01T12:27:42.461Z,99764.20
2018-12-01T12:30:25.970Z,99784.97
2018-12-01T12:32:56.949Z,99778.31
2018-12-01T12:35:34.971Z,99773.14
2018-12-01T12:38:12.660Z,99773.20
2018-12-01T12:40:51.377Z,99760.68
2018-12-01T12:43:28.426Z,99755.33
2018-12-01T12:46:07.682Z,99751.75
2018-12-01T12:48:43.893Z,99749.52
2018-12-01T12:51:18.787Z,99753.00
2018-12-01T12:53:56.189Z,99727.76
2018-12-01T12:56:30.080Z,99734.84
2018-12-01T12:59:18.426Z,99740.39
2018-12-01T13:01:59.269Z,99738.78
2018-12-01T13:04:35.451Z,99733.44
2018-12-01T13:07:08.602Z,99724.88
2018-12-01T13:09:48.647Z,99725.73
2018-12-01T13:12:26.523Z,99719.46
2018-12-01T13:15:04.677Z,99725.59
2018-12-01T13:17:38.742Z,99708.77
2018-12-01T13:20:18.287Z,99713.47
2018-12-01T13:22:56.501Z,99708.86
2018-12-01T13:25:30.401Z,99712.18
2018-12-01T13:28:15.061Z,99710.80
2018-12-01T13:30:54.771Z,99697.45
2018-12-01T13:33:27.530Z,99703.55
2018-12-01T13:36:02.373Z,99672.66
2018-12-01T13:38:36.386Z,99696.14
2018-12-01T13:41:12.944Z,99698.76
2018-12-01T13:43:47.236Z,99693.69
2018-12-01T13:46:26.810Z,99691.22
2018-12-01T13:49:01.816Z,99698.76
2018-12-01T13:51:35.722Z,99707.33
2018-12-01T13:54:12.746Z,99692.39
2018-12-01T13:56:47.429Z,99689.22
2018-12-01T13:59:24.548Z,99693.52
2018-12-01T14:02:05.922Z,99686.38
2018-12-01T14:04:41.383Z,99685.67
2018-12-01T14:07:16.327Z,99681.42
2018-12-01T14:09:49.863Z,99692.23
2018-12-01T14:12:26.570Z,99678.43
2018-12-01T14:15:03.046Z,99678.39
2018-12-01T14:17:39.276Z,99674.11
2018-12-01T14:20:18.554Z,99671.81
2018-12-01T14:22:52.645Z,99670.00
2018-12-01T14:25:28.241Z,99677.44
2018-12-01T14:28:05.394Z,99677.44
2018-12-01T14:30:40.402Z,99675.38
2018-12-01T14:33:18.236Z,99676.67
2018-12-01T14:35:53.668Z,99676.49
2018-12-01T14:38:27.789Z,99677.07
2018-12-01T14:41:03.828Z,99667.41
2018-12-01T14:43:39.486Z,99675.05
2018-12-01T14:46:15.355Z,99670.23
2018-12-01T14:48:53.126Z,99668.00
2018-12-01T14:51:28.358Z,99662.98
2018-12-01T14:54:04.491Z,99664.16
2018-12-01T14:56:42.002Z,99667.39
2018-12-01T14:59:16.924Z,99664.61
2018-12-01T15:01:49.936Z,99668.11
2018-12-01T15:04:25.534Z,99666.45
2018-12-01T15:07:00.551Z,99661.81
2018-12-01T15:09:37.403Z,99659.73
2018-12-01T15:12:15.138Z,99662.81
2018-12-01T15:14:54.536Z,99662.12
2018-12-01T15:17:31.553Z,99656.66
2018-12-01T15:20:08.723Z,99654.58
2018-12-01T15:22:45.414Z,99664.10
2018-12-01T15:25:22.985Z,99649.69
2018-12-01T15:27:58.814Z,99659.84
2018-12-01T15:30:46.655Z,99663.80
2018-12-01T15:33:21.182Z,99671.69
2018-12-01T15:35:59.917Z,99671.05
2018-12-01T15:38:35.015Z,99670.02
2018-12-01T15:41:15.129Z,99675.08
2018-12-01T15:43:55.567Z,99665.06
2018-12-01T15:46:33.398Z,99661.04
2018-12-01T15:49:10.129Z,99663.28
2018-12-01T15:51:45.009Z,99657.17
2018-12-01T15:54:19.801Z,99644.98
2018-12-01T15:56:57.546Z,99658.69
2018-12-01T15:59:31.625Z,99651.09
2018-12-01T16:08:35.318Z,99649.34
2018-12-01T16:11:09.497Z,99645.81
2018-12-01T16:13:45.922Z,99636.20
2018-12-01T16:16:22.699Z,99642.72
2018-12-01T16:18:57.330Z,99639.53
2018-12-01T16:21:32.916Z,99636.07
2018-12-01T16:24:13.469Z,99632.89
2018-12-01T16:26:50.112Z,99638.06
2018-12-01T16:29:26.947Z,99625.30
2018-12-01T16:32:01.989Z,99628.69
2018-12-01T16:34:40.713Z,99630.41
2018-12-01T16:37:15.456Z,99625.17
2018-12-01T16:39:50.473Z,99616.58
2018-12-01T16:42:30.043Z,99618.98
2018-12-01T16:45:04.615Z,99610.84
2018-12-01T16:47:42.349Z,99600.38
2018-12-01T16:50:16.596Z,99605.03
2018-12-01T16:52:50.822Z,99598.09
2018-12-01T16:55:25.474Z,99601.41
2018-12-01T16:58:00.864Z,99598.73
2018-12-01T17:00:37.485Z,99581.31
2018-12-01T17:03:15.941Z,99579.40
2018-12-01T17:05:56.935Z,99576.55
2018-12-01T17:08:35.705Z,99570.03
2018-12-01T17:11:10.036Z,99568.00
2018-12-01T17:13:48.295Z,99565.25
2018-12-01T17:16:26.581Z,99572.78
2018-12-01T17:19:01.679Z,99571.83
2018-12-01T17:21:33.907Z,99569.65
2018-12-01T17:24:10.458Z,99565.20
2018-12-01T17:26:44.284Z,99560.16
2018-12-01T17:29:21.058Z,99556.35
2018-12-01T17:31:57.261Z,99489.82
2018-12-01T17:34:31.230Z,99560.61
2018-12-01T17:37:05.751Z,99534.73
2018-12-01T17:42:21.749Z,99550.86
2018-12-01T17:44:57.314Z,99551.62
2018-12-01T17:47:29.709Z,99556.01
2018-12-01T17:53:01.545Z,99560.58
2018-12-01T17:55:47.108Z,99551.65
2018-12-01T17:58:22.546Z,99550.25
2018-12-01T18:00:57.832Z,99555.45
2018-12-01T18:03:34.473Z,99541.56
2018-12-01T18:06:19.939Z,99556.97
2018-12-01T18:08:54.118Z,99561.27
2018-12-01T18:11:35.262Z,99559.94
2018-12-01T18:14:16.668Z,99561.10
2018-12-01T18:16:50.106Z,99556.38
2018-12-01T18:19:26.033Z,99554.46
2018-12-01T18:22:02.282Z,99565.53
2018-12-01T18:24:41.915Z,99565.15
2018-12-01T18:27:21.212Z,99554.37
2018-12-01T18:29:56.182Z,99439.27
2018-12-01T18:32:32.792Z,99546.38
2018-12-01T18:35:07.105Z,99539.39
2018-12-01T18:37:41.236Z,99531.05
2018-12-01T18:40:21.173Z,99524.87
2018-12-01T18:43:01.075Z,99529.09
2018-12-01T18:45:35.324Z,99529.51
2018-12-01T18:48:11.164Z,99525.41
2018-12-01T18:50:44.462Z,99518.80
2018-12-01T18:53:20.013Z,99519.05
2018-12-01T18:56:02.636Z,99525.56
2018-12-01T18:58:38.273Z,99518.61
2018-12-01T19:01:19.115Z,99526.64
2018-12-01T19:03:59.092Z,99522.89
2018-12-01T19:06:37.692Z,99520.16
2018-12-01T19:09:11.754Z,99513.20
2018-12-01T19:11:51.716Z,99512.03
2018-12-01T19:14:28.588Z,99499.58
2018-12-01T19:17:04.971Z,99500.28
2018-12-01T19:19:49.224Z,99488.11
2018-12-01T19:22:21.271Z,99486.38
2018-12-01T19:24:59.200Z,99479.45
2018-12-01T19:27:36.419Z,99460.84
2018-12-01T19:30:16.261Z,99479.52
2018-12-01T19:32:56.043Z,99465.36
2018-12-01T19:35:32.839Z,99465.36
2018-12-01T19:38:12.001Z,99443.66
2018-12-01T19:43:40.370Z,99431.78
2018-12-01T19:46:20.676Z,99431.10
2018-12-01T19:48:55.408Z,99432.32
2018-12-01T19:51:30.735Z,99436.25
2018-12-01T19:54:08.230Z,99432.35
2018-12-01T19:56:40.815Z,99437.74
2018-12-01T19:59:17.338Z,99437.83
2018-12-01T20:01:56.632Z,99429.42
2018-12-01T20:04:31.299Z,99425.93
2018-12-01T20:07:06.440Z,99428.05
2018-12-01T20:09:42.167Z,99420.19
2018-12-01T20:12:18.497Z,99412.81
2018-12-01T20:14:58.677Z,99418.41
2018-12-01T20:17:36.490Z,99419.47
2018-12-01T20:20:09.660Z,99412.82
2018-12-01T20:22:45.358Z,99334.47
2018-12-01T20:25:19.569Z,99401.77
2018-12-01T20:27:55.754Z,99407.08
2018-12-01T20:30:30.852Z,99397.75
2018-12-01T20:33:05.253Z,99399.20
2018-12-01T20:35:43.321Z,99385.80
2018-12-01T20:38:19.821Z,99389.34
2018-12-01T20:40:58.678Z,99390.83
2018-12-01T20:43:34.714Z,99381.70
2018-12-01T20:46:12.330Z,99378.37
2018-12-01T20:48:46.950Z,99371.59
2018-12-01T20:51:25.307Z,99362.50
2018-12-01T20:54:05.322Z,99366.48
2018-12-01T20:57:07.523Z,99371.28
2018-12-01T20:59:53.198Z,99360.79
2018-12-01T21:02:32.490Z,99357.03
2018-12-01T21:05:05.435Z,99358.48
2018-12-01T21:07:41.399Z,99352.19
2018-12-01T21:10:49.477Z,99358.36
2018-12-01T21:13:25.761Z,99350.42
2018-12-01T21:16:01.310Z,99355.44
2018-12-01T21:21:19.642Z,99355.50
2018-12-01T21:24:03.080Z,99353.98
2018-12-01T21:26:36.445Z,99350.77
2018-12-01T21:29:14.182Z,99347.13
2018-12-01T21:31:48.361Z,99334.81
2018-12-01T21:34:25.056Z,99343.00
2018-12-01T21:36:58.914Z,99335.20
2018-12-01T21:39:29.959Z,99327.33
2018-12-01T21:44:46.255Z,99321.27
2018-12-01T21:47:24.710Z,99316.23
2018-12-01T21:50:02.286Z,99300.97
2018-12-01T21:52:43.718Z,99299.30
2018-12-01T21:55:34.659Z,99304.36
2018-12-01T21:58:11.281Z,99296.23
2018-12-01T22:01:01.361Z,99296.62
2018-12-01T22:03:39.925Z,99291.06
2018-12-01T22:06:18.789Z,99295.52
2018-12-01T22:08:54.268Z,99295.29
2018-12-01T22:11:33.904Z,99282.75
2018-12-01T22:14:12.079Z,99285.42
2018-12-01T22:16:47.649Z,99288.38
2018-12-01T22:19:25.777Z,99280.23
2018-12-01T22:22:01.938Z,99276.95
2018-12-01T22:24:37.657Z,99265.62
2018-12-01T22:27:20.430Z,99283.41
2018-12-01T22:29:57.211Z,99159.25
2018-12-01T22:32:30.907Z,99274.81
2018-12-01T22:35:05.401Z,99265.28
2018-12-01T22:37:39.496Z,99262.72
2018-12-01T22:40:34.626Z,99259.17
2018-12-01T22:43:09.054Z,99176.50
2018-12-01T22:45:41.862Z,99247.75
2018-12-01T22:48:25.396Z,99242.34
2018-12-01T22:51:00.224Z,99246.11
2018-12-01T22:53:35.878Z,99247.23
2018-12-01T22:56:13.959Z,99249.02
2018-12-01T22:58:49.347Z,99249.25
2018-12-01T23:01:29.904Z,99241.38
2018-12-01T23:04:05.239Z,99230.59
2018-12-01T23:06:44.361Z,99248.02
2018-12-01T23:09:18.480Z,99233.16
2018-12-01T23:11:55.079Z,99229.83
2018-12-01T23:14:33.996Z,99242.39
2018-12-01T23:17:13.440Z,99223.59
2018-12-01T23:19:49.333Z,99221.91
2018-12-01T23:22:27.917Z,99221.67
2018-12-01T23:25:03.334Z,99218.88
2018-12-01T23:27:34.133Z,99220.27
2018-12-01T23:30:25.553Z,99217.50
2018-12-01T23:33:10.315Z,99215.64
2018-12-01T23:35:47.118Z,99209.47
2018-12-01T23:38:25.328Z,99209.33
2018-12-01T23:40:59.939Z,99207.88
2018-12-01T23:43:36.184Z,99203.61
2018-12-01T23:46:13.927Z,99196.10
2018-12-01T23:48:50.421Z,99183.92
2018-12-01T23:51:40.838Z,99188.56
2018-12-01T23:54:20.941Z,99180.23
2018-12-01T23:56:57.140Z,99169.58
2018-12-01T23:59:29.298Z,99172.48
